sensor_id;sensor_type;location;lat;lon;timestamp;P1;durP1;ratioP1;P2;durP2;ratioP2
33810;SDS011;20119;48.334;16.206;2023-04-15T00:01:01;2.50;;;2.30;;
33810;SDS011;20119;48.334;16.206;2023-04-15T00:03:28;2.70;;;2.50;;
33810;SDS011;20119;48.334;16.206;2023-04-15T00:05:56;4.38;;;3.72;;
33810;SDS011;20119;48.334;16.206;2023-04-15T00:08:25;6.78;;;6.18;;
33810;SDS011;20119;48.334;16.206;2023-04-15T00:10:54;8.95;;;7.22;;
33810;SDS011;20119;48.334;16.206;2023-04-15T00:13:23;9.38;;;7.95;;
33810;SDS011;20119;48.334;16.206;2023-04-15T00:15:51;10.75;;;9.43;;
33810;SDS011;20119;48.334;16.206;2023-04-15T00:18:18;12.73;;;10.73;;
33810;SDS011;20119;48.334;16.206;2023-04-15T00:20:46;16.65;;;12.40;;
33810;SDS011;20119;48.334;16.206;2023-04-15T00:23:14;10.88;;;9.40;;
33810;SDS011;20119;48.334;16.206;2023-04-15T00:25:42;6.38;;;5.78;;
33810;SDS011;20119;48.334;16.206;2023-04-15T00:28:12;5.40;;;4.13;;
33810;SDS011;20119;48.334;16.206;2023-04-15T00:30:39;3.92;;;3.60;;
33810;SDS011;20119;48.334;16.206;2023-04-15T00:33:07;3.90;;;3.60;;
33810;SDS011;20119;48.334;16.206;2023-04-15T00:35:35;3.63;;;3.33;;
33810;SDS011;20119;48.334;16.206;2023-04-15T00:38:03;3.08;;;2.80;;
33810;SDS011;20119;48.334;16.206;2023-04-15T00:40:32;3.40;;;3.08;;
33810;SDS011;20119;48.334;16.206;2023-04-15T00:43:00;3.65;;;3.35;;
33810;SDS011;20119;48.334;16.206;2023-04-15T00:45:30;3.10;;;2.90;;
33810;SDS011;20119;48.334;16.206;2023-04-15T00:47:57;2.28;;;2.08;;
33810;SDS011;20119;48.334;16.206;2023-04-15T00:50:25;2.20;;;2.00;;
33810;SDS011;20119;48.334;16.206;2023-04-15T00:52:53;1.63;;;1.48;;
33810;SDS011;20119;48.334;16.206;2023-04-15T00:55:21;1.25;;;1.10;;
33810;SDS011;20119;48.334;16.206;2023-04-15T00:57:49;2.35;;;1.23;;
33810;SDS011;20119;48.334;16.206;2023-04-15T01:00:19;1.27;;;1.17;;
33810;SDS011;20119;48.334;16.206;2023-04-15T01:02:48;1.52;;;1.10;;
33810;SDS011;20119;48.334;16.206;2023-04-15T01:05:18;1.23;;;1.08;;
33810;SDS011;20119;48.334;16.206;2023-04-15T01:07:46;2.15;;;1.10;;
33810;SDS011;20119;48.334;16.206;2023-04-15T01:10:13;1.10;;;1.00;;
33810;SDS011;20119;48.334;16.206;2023-04-15T01:12:41;1.08;;;0.93;;
33810;SDS011;20119;48.334;16.206;2023-04-15T01:15:08;1.27;;;1.02;;
33810;SDS011;20119;48.334;16.206;2023-04-15T01:17:38;1.10;;;1.00;;
33810;SDS011;20119;48.334;16.206;2023-04-15T01:20:08;1.10;;;1.00;;
33810;SDS011;20119;48.334;16.206;2023-04-15T01:22:36;1.23;;;1.10;;
33810;SDS011;20119;48.334;16.206;2023-04-15T01:25:06;0.80;;;0.80;;
33810;SDS011;20119;48.334;16.206;2023-04-15T01:27:39;0.93;;;0.93;;
33810;SDS011;20119;48.334;16.206;2023-04-15T01:30:08;1.48;;;0.95;;
33810;SDS011;20119;48.334;16.206;2023-04-15T01:32:37;1.20;;;1.10;;
33810;SDS011;20119;48.334;16.206;2023-04-15T01:35:04;1.20;;;1.10;;
33810;SDS011;20119;48.334;16.206;2023-04-15T01:37:34;1.20;;;1.05;;
33810;SDS011;20119;48.334;16.206;2023-04-15T01:40:03;1.50;;;1.38;;
33810;SDS011;20119;48.334;16.206;2023-04-15T01:42:33;1.50;;;1.40;;
33810;SDS011;20119;48.334;16.206;2023-04-15T01:45:03;1.48;;;1.38;;
33810;SDS011;20119;48.334;16.206;2023-04-15T01:47:32;1.80;;;1.40;;
33810;SDS011;20119;48.334;16.206;2023-04-15T01:50:00;1.60;;;1.50;;
33810;SDS011;20119;48.334;16.206;2023-04-15T01:52:28;1.50;;;1.40;;
33810;SDS011;20119;48.334;16.206;2023-04-15T01:54:57;1.45;;;1.35;;
33810;SDS011;20119;48.334;16.206;2023-04-15T01:59:54;1.60;;;1.50;;
33810;SDS011;20119;48.334;16.206;2023-04-15T02:02:24;1.77;;;1.67;;
33810;SDS011;20119;48.334;16.206;2023-04-15T02:04:51;1.80;;;1.70;;
33810;SDS011;20119;48.334;16.206;2023-04-15T02:07:19;2.05;;;1.85;;
33810;SDS011;20119;48.334;16.206;2023-04-15T02:09:46;2.10;;;1.90;;
33810;SDS011;20119;48.334;16.206;2023-04-15T02:12:14;1.88;;;1.70;;
33810;SDS011;20119;48.334;16.206;2023-04-15T02:14:42;2.55;;;1.70;;
33810;SDS011;20119;48.334;16.206;2023-04-15T02:17:10;1.50;;;1.40;;
33810;SDS011;20119;48.334;16.206;2023-04-15T02:19:38;1.65;;;1.55;;
33810;SDS011;20119;48.334;16.206;2023-04-15T02:22:06;1.80;;;1.60;;
33810;SDS011;20119;48.334;16.206;2023-04-15T02:24:36;1.98;;;1.88;;
33810;SDS011;20119;48.334;16.206;2023-04-15T02:27:03;1.98;;;1.60;;
33810;SDS011;20119;48.334;16.206;2023-04-15T02:29:30;2.35;;;2.15;;
33810;SDS011;20119;48.334;16.206;2023-04-15T02:32:00;2.30;;;2.10;;
33810;SDS011;20119;48.334;16.206;2023-04-15T02:34:28;2.83;;;2.50;;
33810;SDS011;20119;48.334;16.206;2023-04-15T02:36:59;2.42;;;2.22;;
33810;SDS011;20119;48.334;16.206;2023-04-15T02:39:27;2.60;;;2.40;;
33810;SDS011;20119;48.334;16.206;2023-04-15T02:41:55;3.08;;;2.30;;
33810;SDS011;20119;48.334;16.206;2023-04-15T02:44:24;3.33;;;2.50;;
33810;SDS011;20119;48.334;16.206;2023-04-15T02:46:52;2.40;;;2.20;;
33810;SDS011;20119;48.334;16.206;2023-04-15T02:49:20;2.45;;;2.10;;
33810;SDS011;20119;48.334;16.206;2023-04-15T02:51:48;2.10;;;1.95;;
33810;SDS011;20119;48.334;16.206;2023-04-15T02:54:17;2.20;;;2.00;;
33810;SDS011;20119;48.334;16.206;2023-04-15T02:56:44;2.05;;;1.80;;
33810;SDS011;20119;48.334;16.206;2023-04-15T02:59:12;1.83;;;1.60;;
33810;SDS011;20119;48.334;16.206;2023-04-15T03:01:41;1.80;;;1.70;;
33810;SDS011;20119;48.334;16.206;2023-04-15T03:04:09;1.60;;;1.50;;
33810;SDS011;20119;48.334;16.206;2023-04-15T03:06:37;1.42;;;1.33;;
33810;SDS011;20119;48.334;16.206;2023-04-15T03:09:05;1.40;;;1.30;;
33810;SDS011;20119;48.334;16.206;2023-04-15T03:11:37;2.00;;;1.50;;
33810;SDS011;20119;48.334;16.206;2023-04-15T03:14:06;2.45;;;1.40;;
33810;SDS011;20119;48.334;16.206;2023-04-15T03:16:34;11.73;;;6.72;;
33810;SDS011;20119;48.334;16.206;2023-04-15T03:19:03;2.13;;;1.92;;
33810;SDS011;20119;48.334;16.206;2023-04-15T03:21:30;3.13;;;2.83;;
33810;SDS011;20119;48.334;16.206;2023-04-15T03:23:57;2.70;;;2.50;;
33810;SDS011;20119;48.334;16.206;2023-04-15T03:26:26;1.45;;;1.35;;
33810;SDS011;20119;48.334;16.206;2023-04-15T03:28:56;2.00;;;1.90;;
33810;SDS011;20119;48.334;16.206;2023-04-15T03:31:24;1.90;;;1.30;;
33810;SDS011;20119;48.334;16.206;2023-04-15T03:33:52;1.60;;;1.50;;
33810;SDS011;20119;48.334;16.206;2023-04-15T03:36:21;1.20;;;1.10;;
33810;SDS011;20119;48.334;16.206;2023-04-15T03:41:19;1.70;;;1.40;;
33810;SDS011;20119;48.334;16.206;2023-04-15T03:43:47;1.40;;;1.30;;
33810;SDS011;20119;48.334;16.206;2023-04-15T03:46:17;0.95;;;0.90;;
33810;SDS011;20119;48.334;16.206;2023-04-15T03:48:45;1.17;;;1.13;;
33810;SDS011;20119;48.334;16.206;2023-04-15T03:51:14;1.42;;;1.30;;
33810;SDS011;20119;48.334;16.206;2023-04-15T03:53:42;1.48;;;1.38;;
33810;SDS011;20119;48.334;16.206;2023-04-15T03:56:09;1.58;;;1.48;;
33810;SDS011;20119;48.334;16.206;2023-04-15T03:58:39;4.10;;;3.72;;
33810;SDS011;20119;48.334;16.206;2023-04-15T04:01:07;2.25;;;2.08;;
33810;SDS011;20119;48.334;16.206;2023-04-15T04:03:37;1.27;;;1.17;;
33810;SDS011;20119;48.334;16.206;2023-04-15T04:06:05;2.47;;;2.27;;
33810;SDS011;20119;48.334;16.206;2023-04-15T04:08:34;1.75;;;1.65;;
33810;SDS011;20119;48.334;16.206;2023-04-15T04:11:02;1.63;;;1.23;;
33810;SDS011;20119;48.334;16.206;2023-04-15T04:13:30;1.27;;;1.17;;
33810;SDS011;20119;48.334;16.206;2023-04-15T04:15:59;0.80;;;0.80;;
33810;SDS011;20119;48.334;16.206;2023-04-15T04:18:29;1.13;;;1.02;;
33810;SDS011;20119;48.334;16.206;2023-04-15T04:20:58;0.70;;;0.70;;
33810;SDS011;20119;48.334;16.206;2023-04-15T04:23:26;0.63;;;0.50;;
33810;SDS011;20119;48.334;16.206;2023-04-15T04:25:54;0.60;;;0.60;;
33810;SDS011;20119;48.334;16.206;2023-04-15T04:28:22;0.50;;;0.50;;
33810;SDS011;20119;48.334;16.206;2023-04-15T04:30:50;2.00;;;0.55;;
33810;SDS011;20119;48.334;16.206;2023-04-15T04:33:17;0.80;;;0.63;;
33810;SDS011;20119;48.334;16.206;2023-04-15T04:35:45;0.35;;;0.30;;
33810;SDS011;20119;48.334;16.206;2023-04-15T04:38:14;0.40;;;0.35;;
33810;SDS011;20119;48.334;16.206;2023-04-15T04:40:42;5.07;;;0.50;;
33810;SDS011;20119;48.334;16.206;2023-04-15T04:43:09;0.40;;;0.40;;
33810;SDS011;20119;48.334;16.206;2023-04-15T04:45:36;0.35;;;0.35;;
33810;SDS011;20119;48.334;16.206;2023-04-15T04:48:05;0.30;;;0.30;;
33810;SDS011;20119;48.334;16.206;2023-04-15T04:50:33;0.50;;;0.50;;
33810;SDS011;20119;48.334;16.206;2023-04-15T04:53:04;0.50;;;0.50;;
33810;SDS011;20119;48.334;16.206;2023-04-15T04:55:33;0.50;;;0.40;;
33810;SDS011;20119;48.334;16.206;2023-04-15T04:58:01;0.30;;;0.30;;
33810;SDS011;20119;48.334;16.206;2023-04-15T05:00:29;0.40;;;0.40;;
33810;SDS011;20119;48.334;16.206;2023-04-15T05:02:57;0.47;;;0.47;;
33810;SDS011;20119;48.334;16.206;2023-04-15T05:05:25;0.85;;;0.50;;
33810;SDS011;20119;48.334;16.206;2023-04-15T05:07:52;0.47;;;0.47;;
33810;SDS011;20119;48.334;16.206;2023-04-15T05:10:23;0.38;;;0.38;;
33810;SDS011;20119;48.334;16.206;2023-04-15T05:12:53;0.40;;;0.40;;
33810;SDS011;20119;48.334;16.206;2023-04-15T05:15:20;0.40;;;0.40;;
33810;SDS011;20119;48.334;16.206;2023-04-15T05:17:47;0.40;;;0.40;;
33810;SDS011;20119;48.334;16.206;2023-04-15T05:20:15;0.47;;;0.47;;
33810;SDS011;20119;48.334;16.206;2023-04-15T05:22:45;0.75;;;0.75;;
33810;SDS011;20119;48.334;16.206;2023-04-15T05:25:12;1.25;;;0.73;;
33810;SDS011;20119;48.334;16.206;2023-04-15T05:27:40;0.75;;;0.75;;
33810;SDS011;20119;48.334;16.206;2023-04-15T05:30:09;0.40;;;0.40;;
33810;SDS011;20119;48.334;16.206;2023-04-15T05:32:38;0.70;;;0.70;;
33810;SDS011;20119;48.334;16.206;2023-04-15T05:35:06;0.90;;;0.90;;
33810;SDS011;20119;48.334;16.206;2023-04-15T05:37:33;1.40;;;0.88;;
33810;SDS011;20119;48.334;16.206;2023-04-15T05:40:01;1.85;;;0.90;;
33810;SDS011;20119;48.334;16.206;2023-04-15T05:42:29;0.80;;;0.80;;
33810;SDS011;20119;48.334;16.206;2023-04-15T05:44:57;0.80;;;0.80;;
33810;SDS011;20119;48.334;16.206;2023-04-15T05:47:27;0.88;;;0.63;;
33810;SDS011;20119;48.334;16.206;2023-04-15T05:49:55;0.82;;;0.60;;
33810;SDS011;20119;48.334;16.206;2023-04-15T05:52:24;1.05;;;0.80;;
33810;SDS011;20119;48.334;16.206;2023-04-15T05:54:51;0.65;;;0.60;;
33810;SDS011;20119;48.334;16.206;2023-04-15T05:57:18;1.50;;;0.80;;
33810;SDS011;20119;48.334;16.206;2023-04-15T05:59:47;0.90;;;0.90;;
33810;SDS011;20119;48.334;16.206;2023-04-15T06:02:16;1.27;;;0.75;;
33810;SDS011;20119;48.334;16.206;2023-04-15T06:04:44;0.52;;;0.52;;
33810;SDS011;20119;48.334;16.206;2023-04-15T06:07:15;0.75;;;0.50;;
33810;SDS011;20119;48.334;16.206;2023-04-15T06:09:42;0.50;;;0.50;;
33810;SDS011;20119;48.334;16.206;2023-04-15T06:12:10;0.70;;;0.70;;
33810;SDS011;20119;48.334;16.206;2023-04-15T06:14:38;0.40;;;0.40;;
33810;SDS011;20119;48.334;16.206;2023-04-15T06:17:08;0.50;;;0.50;;
33810;SDS011;20119;48.334;16.206;2023-04-15T06:19:36;0.50;;;0.50;;
33810;SDS011;20119;48.334;16.206;2023-04-15T06:22:05;1.15;;;0.47;;
33810;SDS011;20119;48.334;16.206;2023-04-15T06:24:32;0.60;;;0.50;;
33810;SDS011;20119;48.334;16.206;2023-04-15T06:29:37;0.85;;;0.50;;
33810;SDS011;20119;48.334;16.206;2023-04-15T06:32:06;0.77;;;0.50;;
33810;SDS011;20119;48.334;16.206;2023-04-15T06:34:33;0.60;;;0.60;;
33810;SDS011;20119;48.334;16.206;2023-04-15T06:37:01;0.70;;;0.70;;
33810;SDS011;20119;48.334;16.206;2023-04-15T06:39:31;2.90;;;0.70;;
33810;SDS011;20119;48.334;16.206;2023-04-15T06:41:58;0.70;;;0.70;;
33810;SDS011;20119;48.334;16.206;2023-04-15T06:44:25;0.90;;;0.80;;
33810;SDS011;20119;48.334;16.206;2023-04-15T06:46:54;0.40;;;0.40;;
33810;SDS011;20119;48.334;16.206;2023-04-15T06:49:21;0.52;;;0.50;;
33810;SDS011;20119;48.334;16.206;2023-04-15T06:51:48;0.70;;;0.70;;
33810;SDS011;20119;48.334;16.206;2023-04-15T06:54:16;0.80;;;0.57;;
33810;SDS011;20119;48.334;16.206;2023-04-15T06:56:45;0.65;;;0.60;;
33810;SDS011;20119;48.334;16.206;2023-04-15T06:59:13;1.00;;;0.90;;
33810;SDS011;20119;48.334;16.206;2023-04-15T07:01:41;1.42;;;0.93;;
33810;SDS011;20119;48.334;16.206;2023-04-15T07:04:17;1.38;;;0.95;;
33810;SDS011;20119;48.334;16.206;2023-04-15T07:06:44;2.15;;;0.93;;
33810;SDS011;20119;48.334;16.206;2023-04-15T07:09:11;0.75;;;0.75;;
33810;SDS011;20119;48.334;16.206;2023-04-15T07:11:39;0.52;;;0.50;;
33810;SDS011;20119;48.334;16.206;2023-04-15T07:14:09;0.50;;;0.50;;
33810;SDS011;20119;48.334;16.206;2023-04-15T07:16:36;0.50;;;0.50;;
33810;SDS011;20119;48.334;16.206;2023-04-15T07:19:04;0.60;;;0.60;;
33810;SDS011;20119;48.334;16.206;2023-04-15T07:21:31;0.60;;;0.60;;
33810;SDS011;20119;48.334;16.206;2023-04-15T07:23:58;0.63;;;0.63;;
33810;SDS011;20119;48.334;16.206;2023-04-15T07:26:27;0.73;;;0.70;;
33810;SDS011;20119;48.334;16.206;2023-04-15T07:28:54;0.45;;;0.45;;
33810;SDS011;20119;48.334;16.206;2023-04-15T07:31:24;0.40;;;0.40;;
33810;SDS011;20119;48.334;16.206;2023-04-15T07:33:51;0.57;;;0.40;;
33810;SDS011;20119;48.334;16.206;2023-04-15T07:36:18;0.40;;;0.40;;
33810;SDS011;20119;48.334;16.206;2023-04-15T07:38:47;0.30;;;0.30;;
33810;SDS011;20119;48.334;16.206;2023-04-15T07:41:23;0.65;;;0.60;;
33810;SDS011;20119;48.334;16.206;2023-04-15T07:43:51;0.60;;;0.60;;
33810;SDS011;20119;48.334;16.206;2023-04-15T07:46:19;0.70;;;0.50;;
33810;SDS011;20119;48.334;16.206;2023-04-15T07:48:50;0.50;;;0.50;;
33810;SDS011;20119;48.334;16.206;2023-04-15T07:51:17;0.50;;;0.50;;
33810;SDS011;20119;48.334;16.206;2023-04-15T07:53:45;0.50;;;0.50;;
33810;SDS011;20119;48.334;16.206;2023-04-15T07:56:14;0.40;;;0.40;;
33810;SDS011;20119;48.334;16.206;2023-04-15T07:58:41;0.30;;;0.30;;
33810;SDS011;20119;48.334;16.206;2023-04-15T08:01:09;1.17;;;0.40;;
33810;SDS011;20119;48.334;16.206;2023-04-15T08:03:37;1.85;;;0.35;;
33810;SDS011;20119;48.334;16.206;2023-04-15T08:06:06;1.85;;;0.32;;
33810;SDS011;20119;48.334;16.206;2023-04-15T08:08:34;0.52;;;0.38;;
33810;SDS011;20119;48.334;16.206;2023-04-15T08:11:02;0.75;;;0.50;;
33810;SDS011;20119;48.334;16.206;2023-04-15T08:13:31;0.35;;;0.35;;
33810;SDS011;20119;48.334;16.206;2023-04-15T08:16:15;0.35;;;0.30;;
33810;SDS011;20119;48.334;16.206;2023-04-15T08:18:44;0.55;;;0.38;;
33810;SDS011;20119;48.334;16.206;2023-04-15T08:21:13;0.40;;;0.40;;
33810;SDS011;20119;48.334;16.206;2023-04-15T08:23:42;0.30;;;0.30;;
33810;SDS011;20119;48.334;16.206;2023-04-15T08:26:09;0.30;;;0.30;;
33810;SDS011;20119;48.334;16.206;2023-04-15T08:28:37;2.58;;;0.40;;
33810;SDS011;20119;48.334;16.206;2023-04-15T08:33:35;0.50;;;0.40;;
33810;SDS011;20119;48.334;16.206;2023-04-15T08:36:03;0.47;;;0.30;;
33810;SDS011;20119;48.334;16.206;2023-04-15T08:38:33;0.73;;;0.38;;
33810;SDS011;20119;48.334;16.206;2023-04-15T08:41:02;0.70;;;0.30;;
33810;SDS011;20119;48.334;16.206;2023-04-15T08:43:34;1.60;;;0.30;;
33810;SDS011;20119;48.334;16.206;2023-04-15T08:46:05;0.40;;;0.40;;
33810;SDS011;20119;48.334;16.206;2023-04-15T08:48:33;0.40;;;0.40;;
33810;SDS011;20119;48.334;16.206;2023-04-15T08:51:05;0.30;;;0.30;;
33810;SDS011;20119;48.334;16.206;2023-04-15T08:53:35;0.77;;;0.32;;
33810;SDS011;20119;48.334;16.206;2023-04-15T08:56:04;0.30;;;0.30;;
33810;SDS011;20119;48.334;16.206;2023-04-15T08:58:34;0.30;;;0.30;;
33810;SDS011;20119;48.334;16.206;2023-04-15T09:01:02;0.50;;;0.40;;
33810;SDS011;20119;48.334;16.206;2023-04-15T09:03:29;0.30;;;0.30;;
33810;SDS011;20119;48.334;16.206;2023-04-15T09:05:57;0.30;;;0.30;;
33810;SDS011;20119;48.334;16.206;2023-04-15T09:13:34;0.50;;;0.50;;
33810;SDS011;20119;48.334;16.206;2023-04-15T09:16:01;2.30;;;0.40;;
33810;SDS011;20119;48.334;16.206;2023-04-15T09:18:32;0.50;;;0.45;;
33810;SDS011;20119;48.334;16.206;2023-04-15T09:21:03;0.30;;;0.30;;
33810;SDS011;20119;48.334;16.206;2023-04-15T09:29:02;0.50;;;0.50;;
33810;SDS011;20119;48.334;16.206;2023-04-15T09:31:37;0.40;;;0.40;;
33810;SDS011;20119;48.334;16.206;2023-04-15T09:34:04;0.52;;;0.30;;
33810;SDS011;20119;48.334;16.206;2023-04-15T09:36:37;0.38;;;0.38;;
33810;SDS011;20119;48.334;16.206;2023-04-15T09:39:18;0.40;;;0.40;;
33810;SDS011;20119;48.334;16.206;2023-04-15T09:41:46;0.50;;;0.50;;
33810;SDS011;20119;48.334;16.206;2023-04-15T09:44:31;0.50;;;0.50;;
33810;SDS011;20119;48.334;16.206;2023-04-15T09:46:59;0.40;;;0.40;;
33810;SDS011;20119;48.334;16.206;2023-04-15T09:49:26;0.95;;;0.50;;
33810;SDS011;20119;48.334;16.206;2023-04-15T09:54:36;0.47;;;0.47;;
33810;SDS011;20119;48.334;16.206;2023-04-15T09:57:04;0.40;;;0.40;;
33810;SDS011;20119;48.334;16.206;2023-04-15T09:59:33;1.13;;;0.60;;
33810;SDS011;20119;48.334;16.206;2023-04-15T10:02:01;0.50;;;0.50;;
33810;SDS011;20119;48.334;16.206;2023-04-15T10:04:32;0.52;;;0.52;;
33810;SDS011;20119;48.334;16.206;2023-04-15T10:12:13;0.60;;;0.60;;
33810;SDS011;20119;48.334;16.206;2023-04-15T10:22:30;0.50;;;0.50;;
33810;SDS011;20119;48.334;16.206;2023-04-15T10:24:58;0.50;;;0.50;;
33810;SDS011;20119;48.334;16.206;2023-04-15T10:27:29;1.30;;;0.43;;
33810;SDS011;20119;48.334;16.206;2023-04-15T10:29:58;2.67;;;0.73;;
33810;SDS011;20119;48.334;16.206;2023-04-15T10:32:27;0.60;;;0.60;;
33810;SDS011;20119;48.334;16.206;2023-04-15T10:34:55;0.77;;;0.60;;
33810;SDS011;20119;48.334;16.206;2023-04-15T10:37:33;0.60;;;0.60;;
33810;SDS011;20119;48.334;16.206;2023-04-15T10:45:33;0.55;;;0.55;;
33810;SDS011;20119;48.334;16.206;2023-04-15T10:48:02;0.60;;;0.60;;
33810;SDS011;20119;48.334;16.206;2023-04-15T10:53:10;0.60;;;0.60;;
33810;SDS011;20119;48.334;16.206;2023-04-15T10:55:37;1.35;;;0.60;;
33810;SDS011;20119;48.334;16.206;2023-04-15T10:58:04;0.70;;;0.70;;
33810;SDS011;20119;48.334;16.206;2023-04-15T11:00:31;0.98;;;0.70;;
33810;SDS011;20119;48.334;16.206;2023-04-15T11:03:04;0.70;;;0.60;;
33810;SDS011;20119;48.334;16.206;2023-04-15T11:05:49;0.70;;;0.60;;
33810;SDS011;20119;48.334;16.206;2023-04-15T11:08:19;0.98;;;0.60;;
33810;SDS011;20119;48.334;16.206;2023-04-15T11:11:08;0.93;;;0.60;;
33810;SDS011;20119;48.334;16.206;2023-04-15T11:13:35;0.93;;;0.60;;
33810;SDS011;20119;48.334;16.206;2023-04-15T11:16:14;0.50;;;0.50;;
33810;SDS011;20119;48.334;16.206;2023-04-15T11:18:42;0.88;;;0.68;;
33810;SDS011;20119;48.334;16.206;2023-04-15T11:21:38;0.82;;;0.70;;
33810;SDS011;20119;48.334;16.206;2023-04-15T11:24:05;0.60;;;0.60;;
33810;SDS011;20119;48.334;16.206;2023-04-15T11:26:34;0.73;;;0.70;;
33810;SDS011;20119;48.334;16.206;2023-04-15T11:29:01;0.63;;;0.63;;
33810;SDS011;20119;48.334;16.206;2023-04-15T11:31:29;2.63;;;0.65;;
33810;SDS011;20119;48.334;16.206;2023-04-15T11:33:58;0.90;;;0.70;;
33810;SDS011;20119;48.334;16.206;2023-04-15T11:36:26;0.70;;;0.70;;
33810;SDS011;20119;48.334;16.206;2023-04-15T11:38:56;0.93;;;0.67;;
33810;SDS011;20119;48.334;16.206;2023-04-15T11:41:24;1.08;;;0.60;;
33810;SDS011;20119;48.334;16.206;2023-04-15T11:43:53;0.60;;;0.60;;
33810;SDS011;20119;48.334;16.206;2023-04-15T11:46:27;0.68;;;0.68;;
33810;SDS011;20119;48.334;16.206;2023-04-15T11:48:56;0.60;;;0.60;;
33810;SDS011;20119;48.334;16.206;2023-04-15T11:51:24;0.50;;;0.50;;
33810;SDS011;20119;48.334;16.206;2023-04-15T11:53:52;0.60;;;0.60;;
33810;SDS011;20119;48.334;16.206;2023-04-15T11:56:24;0.70;;;0.60;;
33810;SDS011;20119;48.334;16.206;2023-04-15T11:58:55;0.60;;;0.60;;
33810;SDS011;20119;48.334;16.206;2023-04-15T12:01:30;0.70;;;0.70;;
33810;SDS011;20119;48.334;16.206;2023-04-15T12:04:00;0.80;;;0.80;;
33810;SDS011;20119;48.334;16.206;2023-04-15T12:06:30;0.60;;;0.60;;
33810;SDS011;20119;48.334;16.206;2023-04-15T12:09:03;1.00;;;0.88;;
33810;SDS011;20119;48.334;16.206;2023-04-15T12:11:34;0.90;;;0.90;;
33810;SDS011;20119;48.334;16.206;2023-04-15T12:14:11;0.95;;;0.80;;
33810;SDS011;20119;48.334;16.206;2023-04-15T12:16:42;0.70;;;0.70;;
33810;SDS011;20119;48.334;16.206;2023-04-15T12:19:11;0.98;;;0.60;;
33810;SDS011;20119;48.334;16.206;2023-04-15T12:21:41;0.90;;;0.70;;
33810;SDS011;20119;48.334;16.206;2023-04-15T12:24:10;0.70;;;0.70;;
33810;SDS011;20119;48.334;16.206;2023-04-15T12:26:42;0.57;;;0.57;;
33810;SDS011;20119;48.334;16.206;2023-04-15T12:29:13;0.90;;;0.80;;
33810;SDS011;20119;48.334;16.206;2023-04-15T12:34:29;0.80;;;0.80;;
33810;SDS011;20119;48.334;16.206;2023-04-15T12:36:58;0.95;;;0.80;;
33810;SDS011;20119;48.334;16.206;2023-04-15T12:39:27;1.10;;;1.00;;
33810;SDS011;20119;48.334;16.206;2023-04-15T12:41:56;0.80;;;0.80;;
33810;SDS011;20119;48.334;16.206;2023-04-15T12:44:27;1.02;;;1.00;;
33810;SDS011;20119;48.334;16.206;2023-04-15T12:46:55;1.17;;;1.10;;
33810;SDS011;20119;48.334;16.206;2023-04-15T12:49:23;1.10;;;1.00;;
33810;SDS011;20119;48.334;16.206;2023-04-15T12:51:53;1.08;;;1.00;;
33810;SDS011;20119;48.334;16.206;2023-04-15T12:54:25;1.38;;;1.00;;
33810;SDS011;20119;48.334;16.206;2023-04-15T12:56:53;1.10;;;1.00;;
33810;SDS011;20119;48.334;16.206;2023-04-15T12:59:21;3.10;;;1.30;;
33810;SDS011;20119;48.334;16.206;2023-04-15T13:01:50;1.20;;;1.10;;
33810;SDS011;20119;48.334;16.206;2023-04-15T13:04:18;1.10;;;1.00;;
33810;SDS011;20119;48.334;16.206;2023-04-15T13:06:48;1.65;;;1.40;;
33810;SDS011;20119;48.334;16.206;2023-04-15T13:09:15;1.50;;;0.98;;
33810;SDS011;20119;48.334;16.206;2023-04-15T13:11:44;0.80;;;0.80;;
33810;SDS011;20119;48.334;16.206;2023-04-15T13:14:11;2.20;;;1.00;;
33810;SDS011;20119;48.334;16.206;2023-04-15T13:22:01;1.20;;;1.10;;
33810;SDS011;20119;48.334;16.206;2023-04-15T13:24:32;0.77;;;0.77;;
33810;SDS011;20119;48.334;16.206;2023-04-15T13:27:07;0.88;;;0.70;;
33810;SDS011;20119;48.334;16.206;2023-04-15T13:29:34;0.90;;;0.90;;
33810;SDS011;20119;48.334;16.206;2023-04-15T13:32:03;1.10;;;1.00;;
33810;SDS011;20119;48.334;16.206;2023-04-15T13:34:31;1.20;;;1.10;;
33810;SDS011;20119;48.334;16.206;2023-04-15T13:37:06;1.20;;;1.10;;
33810;SDS011;20119;48.334;16.206;2023-04-15T13:39:34;1.58;;;1.10;;
33810;SDS011;20119;48.334;16.206;2023-04-15T13:42:02;1.20;;;1.10;;
33810;SDS011;20119;48.334;16.206;2023-04-15T13:44:30;1.10;;;1.00;;
33810;SDS011;20119;48.334;16.206;2023-04-15T13:46:59;2.80;;;1.80;;
33810;SDS011;20119;48.334;16.206;2023-04-15T13:49:27;1.75;;;1.40;;
33810;SDS011;20119;48.334;16.206;2023-04-15T13:51:54;0.90;;;0.90;;
33810;SDS011;20119;48.334;16.206;2023-04-15T13:54:24;1.40;;;1.00;;
33810;SDS011;20119;48.334;16.206;2023-04-15T13:56:51;2.13;;;1.10;;
33810;SDS011;20119;48.334;16.206;2023-04-15T13:59:21;1.10;;;1.00;;
33810;SDS011;20119;48.334;16.206;2023-04-15T14:01:56;0.93;;;0.90;;
33810;SDS011;20119;48.334;16.206;2023-04-15T14:04:23;1.15;;;0.90;;
33810;SDS011;20119;48.334;16.206;2023-04-15T14:06:51;1.00;;;0.90;;
33810;SDS011;20119;48.334;16.206;2023-04-15T14:09:19;1.40;;;1.30;;
33810;SDS011;20119;48.334;16.206;2023-04-15T14:11:49;2.63;;;1.92;;
33810;SDS011;20119;48.334;16.206;2023-04-15T14:14:17;2.97;;;2.33;;
33810;SDS011;20119;48.334;16.206;2023-04-15T14:24:38;1.67;;;1.58;;
33810;SDS011;20119;48.334;16.206;2023-04-15T14:27:07;1.92;;;1.70;;
33810;SDS011;20119;48.334;16.206;2023-04-15T14:29:36;2.67;;;1.38;;
33810;SDS011;20119;48.334;16.206;2023-04-15T14:32:04;1.58;;;1.40;;
33810;SDS011;20119;48.334;16.206;2023-04-15T14:34:32;3.00;;;1.17;;
33810;SDS011;20119;48.334;16.206;2023-04-15T14:36:59;1.00;;;0.95;;
33810;SDS011;20119;48.334;16.206;2023-04-15T14:39:28;1.30;;;1.20;;
33810;SDS011;20119;48.334;16.206;2023-04-15T14:41:55;2.15;;;1.20;;
33810;SDS011;20119;48.334;16.206;2023-04-15T14:44:25;1.30;;;1.20;;
33810;SDS011;20119;48.334;16.206;2023-04-15T14:54:32;1.90;;;1.70;;
33810;SDS011;20119;48.334;16.206;2023-04-15T14:57:00;1.42;;;1.33;;
33810;SDS011;20119;48.334;16.206;2023-04-15T14:59:36;1.80;;;1.70;;
33810;SDS011;20119;48.334;16.206;2023-04-15T15:02:03;1.35;;;1.25;;
33810;SDS011;20119;48.334;16.206;2023-04-15T15:04:31;1.75;;;1.65;;
33810;SDS011;20119;48.334;16.206;2023-04-15T15:07:00;2.85;;;1.63;;
33810;SDS011;20119;48.334;16.206;2023-04-15T15:09:28;1.80;;;1.70;;
33810;SDS011;20119;48.334;16.206;2023-04-15T15:11:56;1.95;;;1.85;;
33810;SDS011;20119;48.334;16.206;2023-04-15T15:14:24;2.13;;;1.98;;
33810;SDS011;20119;48.334;16.206;2023-04-15T15:24:39;1.70;;;1.60;;
33810;SDS011;20119;48.334;16.206;2023-04-15T15:27:06;1.80;;;1.70;;
33810;SDS011;20119;48.334;16.206;2023-04-15T15:29:36;1.92;;;1.80;;
33810;SDS011;20119;48.334;16.206;2023-04-15T15:32:03;2.33;;;2.13;;
33810;SDS011;20119;48.334;16.206;2023-04-15T15:34:33;1.70;;;1.55;;
33810;SDS011;20119;48.334;16.206;2023-04-15T15:37:03;1.77;;;1.50;;
33810;SDS011;20119;48.334;16.206;2023-04-15T15:39:31;1.50;;;1.40;;
33810;SDS011;20119;48.334;16.206;2023-04-15T15:42:02;1.38;;;1.20;;
33810;SDS011;20119;48.334;16.206;2023-04-15T15:44:30;1.20;;;0.95;;
33810;SDS011;20119;48.334;16.206;2023-04-15T15:47:00;1.53;;;1.07;;
33810;SDS011;20119;48.334;16.206;2023-04-15T15:49:28;1.10;;;1.00;;
33810;SDS011;20119;48.334;16.206;2023-04-15T15:51:56;1.73;;;1.00;;
33810;SDS011;20119;48.334;16.206;2023-04-15T15:54:23;1.15;;;0.90;;
33810;SDS011;20119;48.334;16.206;2023-04-15T15:56:51;1.10;;;1.00;;
33810;SDS011;20119;48.334;16.206;2023-04-15T15:59:19;1.10;;;1.00;;